Time;durP1;ratioP1;P1;durP2;ratioP2;P2;SDS_P1;SDS_P2;PMS_P1;PMS_P2;Temp;Humidity;BMP_temperature;BMP_pressure;BME280_temperature;BME280_humidity;BME280_pressure;Samples;Min_cycle;Max_cycle;Signal;HPM_P1;HPM_P2
2021/09/03 00:05:25;;;;;;;14.90;9.38;;;;;;;14.03;84.76;100933.59;20660516;28;20054;-73
2021/09/03 00:15:27;;;;;;;15.07;9.68;;;;;;;13.95;85.00;100922.38;20660684;28;20050;-73
2021/09/03 00:25:29;;;;;;;14.73;9.48;;;;;;;13.84;85.31;100916.47;20659642;28;20558;-72
2021/09/03 00:35:31;;;;;;;13.23;9.35;;;;;;;13.76;85.65;100892.09;20658535;28;20053;-72
2021/09/03 00:45:33;;;;;;;17.52;9.63;;;;;;;13.79;85.39;100897.28;20673963;28;20081;-73
2021/09/03 00:55:35;;;;;;;17.08;9.35;;;;;;;13.86;84.46;100896.25;20682881;28;20052;-73
2021/09/03 01:05:36;;;;;;;14.43;9.20;;;;;;;13.80;84.21;100896.41;20657043;28;20058;-72
2021/09/03 01:15:38;;;;;;;17.45;10.43;;;;;;;13.56;85.23;100890.75;20655926;28;20420;-72
2021/09/03 01:25:41;;;;;;;15.75;10.13;;;;;;;13.33;86.40;100892.94;20656362;28;20093;-72
2021/09/03 01:35:42;;;;;;;16.15;9.45;;;;;;;13.30;86.41;100883.34;20655547;28;20058;-72
2021/09/03 01:45:44;;;;;;;16.58;9.50;;;;;;;13.32;86.19;100883.34;20655585;28;20050;-71
2021/09/03 01:55:46;;;;;;;15.27;9.48;;;;;;;13.43;85.14;100878.72;20655256;28;20056;-71
2021/09/03 02:05:47;;;;;;;15.50;9.32;;;;;;;13.32;85.62;100873.69;20654936;28;20050;-72
2021/09/03 02:15:51;;;;;;;13.82;8.63;;;;;;;13.45;84.86;100871.66;20655083;28;20077;-72
2021/09/03 02:25:53;;;;;;;14.18;8.77;;;;;;;13.43;84.72;100860.31;20654235;28;20130;-72
2021/09/03 02:35:55;;;;;;;16.70;9.50;;;;;;;13.21;85.29;100866.84;20663958;28;20057;-72
2021/09/03 02:45:57;;;;;;;16.52;9.25;;;;;;;13.09;85.32;100874.06;20667434;28;20561;-72
2021/09/03 02:55:59;;;;;;;18.08;10.30;;;;;;;12.83;86.29;100873.66;20667316;28;20052;-72
2021/09/03 03:06:01;;;;;;;13.55;9.40;;;;;;;12.72;86.71;100870.34;20664050;28;20050;-72
2021/09/03 03:16:03;;;;;;;16.25;9.98;;;;;;;12.61;88.01;100860.03;20598263;28;20043;-74
2021/09/03 03:26:05;;;;;;;15.55;9.35;;;;;;;12.51;87.97;100859.31;20585234;28;20504;-74
2021/09/03 03:36:07;;;;;;;16.40;10.52;;;;;;;12.33;88.43;100857.00;20583337;28;20058;-71
2021/09/03 03:46:09;;;;;;;15.30;9.57;;;;;;;12.30;88.50;100865.75;20580953;28;20504;-72
2021/09/03 03:56:11;;;;;;;17.05;10.60;;;;;;;12.26;88.14;100857.97;20582788;28;20057;-72
2021/09/03 04:06:13;;;;;;;18.50;11.27;;;;;;;11.99;89.56;100849.63;20581661;28;20571;-73
2021/09/03 04:16:14;;;;;;;17.80;11.25;;;;;;;11.94;89.19;100846.19;20652388;23;20050;-70
2021/09/03 04:26:16;;;;;;;17.17;10.82;;;;;;;11.90;89.52;100865.50;20742924;28;20077;-71
2021/09/03 04:36:18;;;;;;;20.58;11.95;;;;;;;11.96;88.96;100862.78;20741027;28;20050;-71
2021/09/03 04:46:20;;;;;;;19.45;11.40;;;;;;;11.91;89.45;100872.47;20740775;28;20104;-70
2021/09/03 04:56:22;;;;;;;17.77;10.98;;;;;;;11.87;89.60;100880.41;20736143;28;20060;-70
2021/09/03 05:06:25;;;;;;;17.88;11.63;;;;;;;11.70;89.73;100877.97;20737001;28;20050;-70
2021/09/03 05:16:26;;;;;;;20.17;12.05;;;;;;;11.82;89.23;100878.69;20738648;28;20076;-70
2021/09/03 05:26:28;;;;;;;18.23;10.98;;;;;;;11.89;89.22;100873.38;20737144;28;20509;-71
2021/09/03 05:36:30;;;;;;;20.25;11.65;;;;;;;12.05;88.58;100874.91;20735780;28;20050;-71
2021/09/03 05:46:32;;;;;;;18.35;12.60;;;;;;;12.29;88.16;100885.03;20736510;28;20417;-70
2021/09/03 05:56:37;;;;;;;20.33;11.45;;;;;;;12.43;87.94;100887.47;20735184;28;20046;-69
2021/09/03 06:06:39;;;;;;;;;;;;;;;12.77;86.84;100892.16;20738762;28;20100;-69
2021/09/03 06:16:41;;;;;;;19.70;10.57;;;;;;;13.07;85.92;100894.25;20751285;28;20000;-69
2021/09/03 06:26:43;;;;;;;17.55;11.82;;;;;;;13.30;85.04;100883.34;20749123;28;20466;-69
2021/09/03 06:36:44;;;;;;;16.20;10.32;;;;;;;13.47;84.21;100896.19;20749140;28;20053;-69
2021/09/03 06:46:46;;;;;;;16.77;10.60;;;;;;;13.82;83.46;100884.06;20751593;28;20107;-69
2021/09/03 06:56:48;;;;;;;14.13;9.85;;;;;;;14.14;82.97;100879.88;20748657;28;20054;-69
2021/09/03 07:06:51;;;;;;;15.00;9.70;;;;;;;14.49;81.34;100874.66;20764340;28;20099;-69
2021/09/03 07:16:52;;;;;;;15.75;10.02;;;;;;;14.86;79.55;100871.09;20775706;28;20092;-69
2021/09/03 07:26:54;;;;;;;14.82;8.27;;;;;;;15.30;77.61;100869.06;20813880;28;20423;-69
2021/09/03 07:37:00;;;;;;;13.70;7.95;;;;;;;15.36;77.24;100874.16;20822356;28;20127;-69
2021/09/03 07:47:01;;;;;;;12.05;7.68;;;;;;;15.63;76.92;100873.41;20748617;28;20591;-69
2021/09/03 07:57:03;;;;;;;11.57;7.80;;;;;;;15.86;75.03;100869.22;20744111;28;20060;-69
2021/09/03 08:07:06;;;;;;;12.13;7.53;;;;;;;15.93;74.72;100856.69;20743709;28;20401;-69
2021/09/03 08:17:08;;;;;;;14.77;8.32;;;;;;;16.48;73.62;100858.47;20801471;28;20054;-69
2021/09/03 08:27:09;;;;;;;12.18;7.63;;;;;;;16.78;72.19;100863.69;20822451;28;20415;-69
2021/09/03 08:37:12;;;;;;;12.13;6.97;;;;;;;17.16;71.72;100842.03;20823283;28;20045;-69
2021/09/03 08:47:14;;;;;;;10.25;6.55;;;;;;;17.65;69.23;100834.94;20822846;28;20061;-68
2021/09/03 08:57:16;;;;;;;16.10;7.15;;;;;;;17.95;68.31;100832.03;20822192;28;20057;-69
2021/09/03 09:07:19;;;;;;;12.27;7.07;;;;;;;18.30;64.83;100828.00;20821374;28;20049;-69
2021/09/03 09:17:41;;;;;;;10.77;6.75;;;;;;;18.84;64.42;100839.03;20760119;28;20085;-69
2021/09/03 09:27:43;;;;;;;11.25;6.20;;;;;;;19.17;63.38;100832.25;20712564;28;20489;-69
2021/09/03 09:37:52;;;;;;;10.13;6.50;;;;;;;19.51;61.21;100817.44;20673077;28;20046;-70
2021/09/03 09:48:02;;;;;;;11.93;6.22;;;;;;;20.05;60.56;100813.16;20674408;28;20046;-69
2021/09/03 09:58:05;;;;;;;10.35;6.60;;;;;;;20.26;57.51;100803.25;20672986;28;20046;-68
2021/09/03 10:08:07;;;;;;;9.50;5.68;;;;;;;20.63;58.44;100807.63;20670834;28;20047;-68
2021/09/03 10:18:11;;;;;;;8.98;6.10;;;;;;;20.77;57.24;100788.28;20817623;28;20050;-68
2021/09/03 10:28:12;;;;;;;12.15;6.18;;;;;;;20.95;55.94;100781.16;20752306;28;20076;-67
2021/09/03 10:38:30;;;;;;;11.65;6.68;;;;;;;21.16;57.90;100772.00;20750691;28;20451;-67
2021/09/03 10:48:32;;;;;;;10.65;6.50;;;;;;;21.40;56.67;100766.31;20748844;28;20045;-68
2021/09/03 10:58:45;;;;;;;12.85;5.95;;;;;;;21.68;55.41;100761.19;20748043;28;20389;-67
2021/09/03 11:08:46;;;;;;;11.88;6.20;;;;;;;21.80;54.32;100753.44;20747247;28;20046;-67
2021/09/03 11:19:14;;;;;;;11.02;6.63;;;;;;;21.88;53.31;100738.72;20819440;28;20049;-68
2021/09/03 11:29:21;;;;;;;10.90;5.85;;;;;;;22.28;52.76;100718.63;20825582;28;20455;-68
2021/09/03 11:39:25;;;;;;;10.05;5.57;;;;;;;22.39;50.64;100715.31;20826398;28;20115;-69
2021/09/03 11:49:27;;;;;;;8.30;5.65;;;;;;;22.43;51.90;100716.00;20827335;28;20095;-69
2021/09/03 11:59:28;;;;;;;9.35;5.70;;;;;;;22.78;49.90;100709.38;20824652;28;20045;-69
2021/09/03 12:09:34;;;;;;;10.55;5.80;;;;;;;22.83;48.36;100697.56;20824041;28;20453;-69
2021/09/03 12:19:38;;;;;;;8.55;5.00;;;;;;;22.71;49.23;100697.38;20745505;28;20580;-69
2021/09/03 12:29:43;;;;;;;11.35;5.70;;;;;;;22.98;49.07;100681.47;20740306;28;20072;-69
2021/09/03 12:39:46;;;;;;;8.82;5.05;;;;;;;22.78;50.90;100674.66;20740169;28;20045;-68
2021/09/03 12:49:47;;;;;;;8.82;4.88;;;;;;;22.86;47.59;100676.88;20746673;28;20553;-68
2021/09/03 12:59:49;;;;;;;8.02;5.03;;;;;;;23.10;49.41;100658.47;20740586;28;20053;-68
2021/09/03 13:09:52;;;;;;;9.73;5.57;;;;;;;23.03;48.83;100649.13;20740067;28;20049;-68
2021/09/03 13:19:53;;;;;;;8.52;5.30;;;;;;;23.44;46.22;100626.91;20749338;28;20492;-68
2021/09/03 13:29:55;;;;;;;7.80;5.00;;;;;;;23.49;45.34;100619.44;20738640;28;20125;-68
2021/09/03 13:40:02;;;;;;;7.65;4.60;;;;;;;23.46;45.62;100606.25;20737833;28;20077;-68
2021/09/03 13:50:08;;;;;;;7.53;5.18;;;;;;;23.51;45.88;100593.44;20737263;28;20514;-68
2021/09/03 14:00:10;;;;;;;8.32;4.90;;;;;;;23.61;46.01;100581.19;20736985;28;20057;-68
2021/09/03 14:10:12;;;;;;;7.30;4.53;;;;;;;23.49;44.29;100582.00;20737685;28;20046;-69
2021/09/03 14:20:18;;;;;;;7.60;4.65;;;;;;;23.80;43.43;100576.31;20818494;28;20076;-68
2021/09/03 14:30:20;;;;;;;7.57;4.35;;;;;;;23.96;44.56;100545.88;20825553;28;20045;-68
2021/09/03 14:40:22;;;;;;;6.40;4.22;;;;;;;23.95;43.45;100547.69;20832130;28;20079;-67
2021/09/03 14:50:24;;;;;;;6.20;4.05;;;;;;;24.13;40.97;100526.81;20829895;28;20052;-67
2021/09/03 15:00:26;;;;;;;8.48;4.30;;;;;;;23.82;43.03;100522.75;20831084;28;20097;-67
2021/09/03 15:10:28;;;;;;;8.40;4.55;;;;;;;24.14;41.50;100516.97;20825650;28;20470;-67
2021/09/03 15:20:31;;;;;;;7.82;4.55;;;;;;;23.58;43.71;100511.91;20747561;28;20053;-68
2021/09/03 15:30:33;;;;;;;6.65;4.13;;;;;;;23.90;41.87;100501.69;20701168;28;20057;-67
2021/09/03 15:40:35;;;;;;;7.63;4.35;;;;;;;23.93;43.24;100497.94;20679357;28;20142;-67
2021/09/03 15:50:38;;;;;;;7.53;4.25;;;;;;;23.80;43.81;100484.56;20662982;28;20046;-67
2021/09/03 16:00:40;;;;;;;10.13;4.60;;;;;;;23.76;41.79;100467.03;20663758;28;20475;-68
2021/09/03 16:10:42;;;;;;;6.70;4.10;;;;;;;23.86;41.95;100464.56;20687939;28;20171;-68
2021/09/03 16:20:44;;;;;;;9.98;4.32;;;;;;;23.82;42.30;100463.94;20823207;28;20099;-68
2021/09/03 16:30:45;;;;;;;6.90;4.38;;;;;;;24.12;40.61;100458.25;20822581;28;20045;-68
2021/09/03 16:40:48;;;;;;;7.20;4.32;;;;;;;24.08;41.81;100448.72;20787382;28;20115;-68
2021/09/03 16:50:49;;;;;;;7.13;4.22;;;;;;;24.10;42.00;100444.13;20782684;28;20045;-68
2021/09/03 17:00:51;;;;;;;6.90;4.00;;;;;;;23.65;43.67;100440.19;20808306;28;20135;-67
2021/09/03 17:10:54;;;;;;;7.82;4.25;;;;;;;23.38;45.60;100442.91;20819005;28;20041;-68
2021/09/03 17:20:55;;;;;;;9.65;5.25;;;;;;;22.59;51.42;100444.56;20819725;28;20049;-68
2021/09/03 17:30:58;;;;;;;8.57;5.00;;;;;;;22.12;53.56;100440.44;20819760;28;20682;-68
2021/09/03 17:41:01;;;;;;;8.07;4.75;;;;;;;21.43;56.56;100446.50;20820584;28;20053;-68
2021/09/03 17:51:03;;;;;;;8.77;5.00;;;;;;;20.69;60.73;100441.91;20818962;28;20076;-68
2021/09/03 18:01:05;;;;;;;8.77;4.45;;;;;;;20.39;62.88;100442.66;20821811;28;20072;-68
2021/09/03 18:11:07;;;;;;;8.38;5.20;;;;;;;19.95;65.94;100455.72;20825435;28;20049;-68
2021/09/03 18:21:09;;;;;;;8.50;5.13;;;;;;;19.49;66.77;100451.00;20749658;28;20057;-68
2021/09/03 18:31:11;;;;;;;9.85;5.40;;;;;;;19.23;66.54;100460.31;20750351;28;20058;-68
2021/09/03 18:41:12;;;;;;;8.63;5.22;;;;;;;18.86;68.08;100471.88;20750268;28;20077;-68
2021/09/03 18:51:14;;;;;;;9.05;5.40;;;;;;;18.51;69.20;100476.22;20749654;28;20496;-68
2021/09/03 19:01:16;;;;;;;10.45;6.18;;;;;;;18.26;71.70;100486.25;20747325;28;20060;-68
2021/09/03 19:11:18;;;;;;;9.40;6.22;;;;;;;18.05;72.29;100491.59;20757581;28;20128;-68
2021/09/03 19:21:20;;;;;;;10.27;6.00;;;;;;;17.82;72.88;100494.38;20829089;28;20425;-68
2021/09/03 19:31:21;;;;;;;12.10;6.85;;;;;;;17.64;73.11;100499.56;20828097;28;20471;-68
2021/09/03 19:41:23;;;;;;;10.73;6.97;;;;;;;17.38;74.35;100513.03;20828582;28;20069;-68
2021/09/03 19:51:25;;;;;;;11.57;6.57;;;;;;;17.06;74.55;100515.22;20825710;28;20061;-68
2021/09/03 20:01:27;;;;;;;9.93;6.45;;;;;;;16.60;76.18;100524.09;20824481;28;20046;-67
2021/09/03 20:11:29;;;;;;;9.80;6.22;;;;;;;16.40;77.11;100519.56;20812410;28;20085;-67
2021/09/03 20:21:31;;;;;;;9.82;6.75;;;;;;;16.24;77.86;100521.03;20743351;28;20050;-67
2021/09/03 20:31:33;;;;;;;11.13;7.00;;;;;;;16.05;77.98;100519.09;20741361;28;20050;-67
2021/09/03 20:41:35;;;;;;;10.55;6.72;;;;;;;15.88;78.72;100519.69;20741600;28;20053;-67
2021/09/03 20:51:37;;;;;;;11.35;7.25;;;;;;;15.82;78.27;100519.06;20740138;28;20046;-67
2021/09/03 21:01:38;;;;;;;12.38;7.63;;;;;;;15.68;78.63;100522.19;20740137;28;20465;-67
2021/09/03 21:11:40;;;;;;;11.43;7.57;;;;;;;15.67;78.27;100531.03;20753745;28;20498;-68
2021/09/03 21:21:42;;;;;;;10.23;7.28;;;;;;;15.60;78.58;100535.59;20819326;28;20072;-67
2021/09/03 21:31:44;;;;;;;13.02;8.00;;;;;;;15.49;78.67;100535.09;20731601;28;20099;-68
2021/09/03 21:41:46;;;;;;;13.55;7.57;;;;;;;15.32;79.92;100526.88;20749277;28;20492;-68
2021/09/03 21:51:48;;;;;;;11.60;7.10;;;;;;;15.22;80.04;100522.84;20755566;28;20459;-67
2021/09/03 22:01:49;;;;;;;13.35;7.43;;;;;;;15.21;80.50;100531.66;20754213;28;20100;-67
2021/09/03 22:11:52;;;;;;;11.52;7.10;;;;;;;15.02;81.35;100536.66;20674320;28;20585;-69
2021/09/03 22:21:53;;;;;;;12.48;7.60;;;;;;;14.96;80.74;100531.59;20670787;28;20046;-69
2021/09/03 22:31:55;;;;;;;14.40;8.05;;;;;;;14.86;81.60;100528.38;20668773;28;20043;-70
2021/09/03 22:41:57;;;;;;;14.65;7.88;;;;;;;14.60;82.91;100522.13;20669767;28;20050;-70
2021/09/03 22:51:59;;;;;;;12.57;7.82;;;;;;;14.55;83.32;100523.19;20667298;28;20096;-70
2021/09/03 23:02:01;;;;;;;11.45;7.53;;;;;;;14.50;82.91;100528.59;20667871;28;20046;-70
2021/09/03 23:12:04;;;;;;;14.07;8.48;;;;;;;14.48;83.05;100521.66;20727358;28;20104;-70
2021/09/03 23:22:06;;;;;;;14.50;8.02;;;;;;;14.31;83.94;100516.81;20746261;28;20480;-70
2021/09/03 23:32:08;;;;;;;13.65;8.30;;;;;;;14.16;84.19;100517.28;20745165;28;20558;-70
2021/09/03 23:42:10;;;;;;;12.90;8.73;;;;;;;14.20;83.53;100513.66;20744255;28;20081;-70
2021/09/03 23:52:12;;;;;;;13.38;8.77;;;;;;;14.20;83.13;100503.13;20743991;28;20100;-70
